Sargents, Colorado
Current Conditions -  °F | °C
As of 3:14 PM on Wednesday 28 Jan 2015 (Local Time) from KMYP Reporting Station
Clear Clear  
Wind Chill:   Ceiling: Unl
Heat Index: 27°   Visibility: NA
Dew Point: 18°   Wind: 38mph
Humidity: 69%   Direction: 260°W
Pressure: 30.36"   Gusts: 45mph
Location:  38.4°N, 106.42°W
Report Text: KMYP 282214Z AUTO 26033G39KT CLR M03/M08 A3036 RMK AO2 PWINO
Loading
Personal Weather Stations






























Interactive Weather Map New forecast layout! Learn more

10-Day Weather Forecast

Advertisements
Track Severe Weather on mobile